createdAt,value
2018-05-25T00:02:07.178Z,14.18
2018-05-25T00:04:35.558Z,14.21
2018-05-25T00:07:04.013Z,14.14
2018-05-25T00:09:32.369Z,14.04
2018-05-25T00:12:00.774Z,14.05
2018-05-25T00:14:29.163Z,14.04
2018-05-25T00:16:57.588Z,14.03
2018-05-25T00:19:25.980Z,14.07
2018-05-25T00:21:54.395Z,13.92
2018-05-25T00:24:22.784Z,13.86
2018-05-25T00:26:51.630Z,13.86
2018-05-25T00:29:20.040Z,13.87
2018-05-25T00:31:48.434Z,13.81
2018-05-25T00:34:16.831Z,13.72
2018-05-25T00:36:45.238Z,13.68
2018-05-25T00:39:13.625Z,13.64
2018-05-25T00:41:42.028Z,13.55
2018-05-25T00:44:10.429Z,13.38
2018-05-25T00:46:38.830Z,13.27
2018-05-25T00:49:07.227Z,13.27
2018-05-25T00:51:35.623Z,13.23
2018-05-25T00:54:04.008Z,13.11
2018-05-25T00:56:32.414Z,13.18
2018-05-25T00:59:00.799Z,13.22
2018-05-25T01:01:29.210Z,13.31
2018-05-25T01:03:57.604Z,13.49
2018-05-25T01:06:26.013Z,13.67
2018-05-25T01:08:54.399Z,13.89
2018-05-25T01:11:22.808Z,14.01
2018-05-25T01:13:51.201Z,14.03
2018-05-25T01:16:19.608Z,14.04
2018-05-25T01:18:48.005Z,14.18
2018-05-25T01:21:16.423Z,14.30
2018-05-25T01:23:45.060Z,14.33
2018-05-25T01:26:13.647Z,14.44
2018-05-25T01:28:43.040Z,14.45
2018-05-25T01:31:11.456Z,14.51
2018-05-25T01:33:39.844Z,14.60
2018-05-25T01:36:08.598Z,14.69
2018-05-25T01:38:36.986Z,14.83
2018-05-25T01:41:05.403Z,14.93
2018-05-25T01:43:33.790Z,15.01
2018-05-25T01:46:02.195Z,15.03
2018-05-25T01:48:30.603Z,15.09
2018-05-25T01:50:59.002Z,14.96
2018-05-25T01:53:27.386Z,14.96
2018-05-25T01:55:55.778Z,15.02
2018-05-25T01:58:24.188Z,15.02
2018-05-25T02:00:52.575Z,15.11
2018-05-25T02:03:20.974Z,15.18
2018-05-25T02:05:49.351Z,15.00
2018-05-25T02:08:17.759Z,15.04
2018-05-25T02:10:46.139Z,15.10
2018-05-25T02:13:14.544Z,15.16
2018-05-25T02:15:42.947Z,15.11
2018-05-25T02:18:11.354Z,15.10
2018-05-25T02:20:39.747Z,15.11
2018-05-25T02:23:08.146Z,15.19
2018-05-25T02:25:36.704Z,15.16
2018-05-25T02:28:05.195Z,15.24
2018-05-25T02:30:33.629Z,15.34
2018-05-25T02:33:02.017Z,15.41
2018-05-25T02:35:30.399Z,15.38
2018-05-25T02:37:58.803Z,15.34
2018-05-25T02:40:27.192Z,15.35
2018-05-25T02:42:55.603Z,15.30
2018-05-25T02:45:23.986Z,15.30
2018-05-25T02:47:52.388Z,15.28
2018-05-25T02:50:20.779Z,15.30
2018-05-25T02:52:49.190Z,15.14
2018-05-25T02:55:17.575Z,15.13
2018-05-25T02:57:45.982Z,14.95
2018-05-25T03:00:14.379Z,14.85
2018-05-25T03:02:42.788Z,14.82
2018-05-25T03:05:11.171Z,14.73
2018-05-25T03:07:39.583Z,14.70
2018-05-25T03:10:07.976Z,14.65
2018-05-25T03:12:36.388Z,14.64
2018-05-25T03:15:04.779Z,14.73
2018-05-25T03:17:33.192Z,14.82
2018-05-25T03:20:01.591Z,14.92
2018-05-25T03:22:32.815Z,15.03
2018-05-25T03:25:01.207Z,14.86
2018-05-25T03:27:29.606Z,14.85
2018-05-25T03:29:58.000Z,14.85
2018-05-25T03:32:26.399Z,14.91
2018-05-25T03:34:54.803Z,15.05
2018-05-25T03:37:23.215Z,15.09
2018-05-25T03:39:51.611Z,15.29
2018-05-25T03:42:20.020Z,15.40
2018-05-25T03:44:48.415Z,15.35
2018-05-25T03:47:16.813Z,15.38
2018-05-25T03:49:45.203Z,15.46
2018-05-25T03:52:13.629Z,15.49
2018-05-25T03:54:42.020Z,15.49
2018-05-25T03:57:10.427Z,15.50
2018-05-25T03:59:50.444Z,15.53
2018-05-25T04:02:18.844Z,15.66
2018-05-25T04:04:48.364Z,15.79
2018-05-25T04:07:16.772Z,15.76
2018-05-25T04:09:45.159Z,15.78
2018-05-25T04:12:13.571Z,15.86
2018-05-25T04:14:41.953Z,15.80
2018-05-25T04:17:10.355Z,15.71
2018-05-25T04:19:38.746Z,15.84
2018-05-25T04:22:07.156Z,16.00
2018-05-25T04:24:35.551Z,16.04
2018-05-25T04:27:04.090Z,16.04
2018-05-25T04:29:32.483Z,16.10
2018-05-25T04:32:00.898Z,16.36
2018-05-25T04:34:29.308Z,16.08
2018-05-25T04:36:57.881Z,16.22
2018-05-25T04:39:26.291Z,16.31
2018-05-25T04:41:54.678Z,16.33
2018-05-25T04:44:23.083Z,16.38
2018-05-25T04:46:51.496Z,16.53
2018-05-25T04:49:19.878Z,16.57
2018-05-25T04:51:48.269Z,16.76
2018-05-25T04:54:16.689Z,16.71
2018-05-25T04:56:45.072Z,16.68
2018-05-25T04:59:13.471Z,16.79
2018-05-25T05:01:41.854Z,16.85
2018-05-25T05:04:10.259Z,16.89
2018-05-25T05:06:38.652Z,16.90
2018-05-25T05:09:07.055Z,17.07
2018-05-25T05:11:35.444Z,17.07
2018-05-25T05:14:03.855Z,17.16
2018-05-25T05:16:32.247Z,17.38
2018-05-25T05:19:00.647Z,17.35
2018-05-25T05:21:29.036Z,17.59
2018-05-25T05:23:57.443Z,17.61
2018-05-25T05:26:26.294Z,17.77
2018-05-25T05:28:55.119Z,17.88
2018-05-25T05:31:23.500Z,17.94
2018-05-25T05:33:53.035Z,18.09
2018-05-25T05:36:21.414Z,18.23
2018-05-25T05:38:49.836Z,18.16
2018-05-25T05:41:18.256Z,18.02
2018-05-25T05:43:46.667Z,18.08
2018-05-25T05:46:15.059Z,17.80
2018-05-25T05:48:43.472Z,17.87
2018-05-25T05:51:11.863Z,17.95
2018-05-25T05:53:40.267Z,18.02
2018-05-25T05:56:08.655Z,18.16
2018-05-25T05:58:37.060Z,18.10
2018-05-25T06:01:05.448Z,18.14
2018-05-25T06:03:33.855Z,18.20
2018-05-25T06:06:02.248Z,18.40
2018-05-25T06:08:30.655Z,18.38
2018-05-25T06:10:59.047Z,18.28
2018-05-25T06:13:27.459Z,18.35
2018-05-25T06:15:55.851Z,18.01
2018-05-25T06:18:24.250Z,17.83
2018-05-25T06:20:52.643Z,18.21
2018-05-25T06:23:21.055Z,18.34
2018-05-25T06:25:49.439Z,18.37
2018-05-25T06:28:18.151Z,18.56
2018-05-25T06:30:47.504Z,18.69
2018-05-25T06:33:16.014Z,18.77
2018-05-25T06:35:44.815Z,18.52
2018-05-25T06:38:13.222Z,18.36
2018-05-25T06:40:42.207Z,18.13
2018-05-25T06:43:11.111Z,18.22
2018-05-25T06:45:40.252Z,18.21
2018-05-25T06:48:08.927Z,18.28
2018-05-25T06:50:37.357Z,18.24
2018-05-25T06:53:07.095Z,18.32
2018-05-25T06:55:35.551Z,18.00
2018-05-25T06:58:04.070Z,18.33
2018-05-25T07:00:33.644Z,18.48
2018-05-25T07:03:02.536Z,18.61
2018-05-25T07:05:31.565Z,19.11
2018-05-25T07:07:59.967Z,19.68
2018-05-25T07:10:28.371Z,19.90
2018-05-25T07:12:56.983Z,20.06
2018-05-25T07:15:26.116Z,20.50
2018-05-25T07:17:55.474Z,20.71
2018-05-25T07:20:24.780Z,20.03
2018-05-25T07:22:53.470Z,20.60
2018-05-25T07:25:22.423Z,20.41
2018-05-25T07:27:50.944Z,21.15
2018-05-25T07:30:19.323Z,23.17
2018-05-25T07:32:47.743Z,25.93
2018-05-25T07:35:16.127Z,26.16
2018-05-25T07:37:44.544Z,25.31
2018-05-25T07:40:12.926Z,24.30
2018-05-25T07:42:41.336Z,23.45
2018-05-25T07:45:09.722Z,23.14
2018-05-25T07:47:38.111Z,22.76
2018-05-25T07:50:06.521Z,22.08
2018-05-25T07:52:34.917Z,22.74
2018-05-25T07:55:03.543Z,22.83
2018-05-25T07:57:31.935Z,23.26
2018-05-25T08:00:00.348Z,23.71
2018-05-25T08:02:28.740Z,23.32
2018-05-25T08:04:57.152Z,22.83
2018-05-25T08:07:25.544Z,23.11
2018-05-25T08:09:53.962Z,23.08
2018-05-25T08:12:22.352Z,23.27
2018-05-25T08:14:50.751Z,23.41
2018-05-25T08:17:19.140Z,24.19
2018-05-25T08:19:47.543Z,24.70
2018-05-25T08:22:15.923Z,25.98
2018-05-25T08:24:44.326Z,28.13
2018-05-25T08:27:12.721Z,30.40
2018-05-25T08:29:41.609Z,28.58
2018-05-25T08:32:10.522Z,27.32
2018-05-25T08:34:39.963Z,26.36
2018-05-25T08:37:08.510Z,25.72
2018-05-25T08:39:36.915Z,25.44
2018-05-25T08:42:06.541Z,26.33
2018-05-25T08:44:35.410Z,26.26
2018-05-25T08:47:04.515Z,26.65
2018-05-25T08:49:32.948Z,28.18
2018-05-25T08:52:01.316Z,30.31
2018-05-25T08:54:30.791Z,32.85
2018-05-25T08:56:59.180Z,32.01
2018-05-25T08:59:27.860Z,30.69
2018-05-25T09:01:56.976Z,32.79
2018-05-25T09:04:25.823Z,33.32
2018-05-25T09:06:54.939Z,30.98
2018-05-25T09:09:23.819Z,29.28
2018-05-25T09:11:52.679Z,27.66
2018-05-25T09:14:21.090Z,26.56
2018-05-25T09:16:50.452Z,25.72
2018-05-25T09:19:18.852Z,25.40
2018-05-25T09:21:48.061Z,29.84
2018-05-25T09:24:16.758Z,31.20
2018-05-25T09:26:45.243Z,34.30
2018-05-25T09:29:13.662Z,34.05
2018-05-25T09:31:42.510Z,35.10
2018-05-25T09:34:11.183Z,34.95
2018-05-25T09:36:39.948Z,33.66
2018-05-25T09:39:08.679Z,34.92
2018-05-25T09:41:37.687Z,36.55
2018-05-25T09:44:06.166Z,36.98
2018-05-25T09:46:34.589Z,38.19
2018-05-25T09:49:03.120Z,37.38
2018-05-25T09:51:32.246Z,36.86
2018-05-25T09:54:01.099Z,38.66
2018-05-25T09:56:30.235Z,35.40
2018-05-25T09:58:58.995Z,34.82
2018-05-25T10:01:27.606Z,36.11
2018-05-25T10:03:56.535Z,34.36
2018-05-25T10:06:25.822Z,34.01
2018-05-25T10:08:54.543Z,35.97
2018-05-25T10:11:23.935Z,36.36
2018-05-25T10:13:52.991Z,36.60
2018-05-25T10:16:21.407Z,38.22
2018-05-25T10:18:50.535Z,36.64
2018-05-25T10:21:18.918Z,37.29
2018-05-25T10:23:47.391Z,39.89
2018-05-25T10:26:16.523Z,35.36
2018-05-25T10:28:44.999Z,32.32
2018-05-25T10:31:13.612Z,30.15
2018-05-25T10:33:42.319Z,29.08
2018-05-25T10:36:10.708Z,27.96
2018-05-25T10:38:39.127Z,30.57
2018-05-25T10:41:07.565Z,33.45
2018-05-25T10:43:35.927Z,37.11
2018-05-25T10:46:04.307Z,38.38
2018-05-25T10:48:32.708Z,36.66
2018-05-25T10:51:01.077Z,32.70
2018-05-25T10:53:29.475Z,34.25
2018-05-25T10:55:57.857Z,35.63
2018-05-25T10:58:26.247Z,36.16
2018-05-25T11:00:54.651Z,37.42
2018-05-25T11:03:23.055Z,34.52
2018-05-25T11:05:51.435Z,35.51
2018-05-25T11:08:19.802Z,36.74
2018-05-25T11:10:48.198Z,37.41
2018-05-25T11:13:16.584Z,35.95
2018-05-25T11:15:44.971Z,35.81
2018-05-25T11:18:13.351Z,36.53
2018-05-25T11:20:41.742Z,36.21
2018-05-25T11:23:10.123Z,35.65
2018-05-25T11:25:38.517Z,35.14
2018-05-25T11:28:06.899Z,36.46
2018-05-25T11:30:37.010Z,36.60
2018-05-25T11:33:05.620Z,38.33
2018-05-25T11:35:34.938Z,39.70
2018-05-25T11:38:03.887Z,37.86
2018-05-25T11:40:32.827Z,40.03
2018-05-25T11:43:01.752Z,39.14
2018-05-25T11:45:30.664Z,39.85
2018-05-25T11:47:59.344Z,39.23
2018-05-25T11:50:28.191Z,41.28
2018-05-25T11:52:56.573Z,40.38
2018-05-25T11:55:25.379Z,37.66
2018-05-25T11:57:53.812Z,36.26
2018-05-25T12:00:22.732Z,33.29
2018-05-25T12:02:51.788Z,31.85
2018-05-25T12:05:20.800Z,30.51
2018-05-25T12:07:49.176Z,30.61
2018-05-25T12:10:17.575Z,29.95
2018-05-25T12:12:45.955Z,29.88
2018-05-25T12:15:14.764Z,29.37
2018-05-25T12:17:43.539Z,29.32
2018-05-25T12:20:11.927Z,29.35
2018-05-25T12:22:40.315Z,29.44
2018-05-25T12:25:08.702Z,31.90
2018-05-25T12:27:37.706Z,32.44
2018-05-25T12:30:06.202Z,30.33
2018-05-25T12:32:35.115Z,29.93
2018-05-25T12:35:03.506Z,29.63
2018-05-25T12:37:32.510Z,29.85
2018-05-25T12:40:01.580Z,29.87
2018-05-25T12:42:29.956Z,30.62
2018-05-25T12:45:10.908Z,32.20
2018-05-25T12:47:39.802Z,33.44
2018-05-25T12:50:08.312Z,35.21
2018-05-25T12:52:37.635Z,36.15
2018-05-25T12:55:06.292Z,36.62
2018-05-25T12:57:35.187Z,35.99
2018-05-25T13:00:03.587Z,35.73
2018-05-25T13:02:32.539Z,35.68
2018-05-25T13:05:01.399Z,34.86
2018-05-25T13:07:29.812Z,33.37
2018-05-25T13:09:58.295Z,34.61
2018-05-25T13:12:26.676Z,34.45
2018-05-25T13:14:56.284Z,33.40
2018-05-25T13:17:25.143Z,32.64
2018-05-25T13:19:53.545Z,34.65
2018-05-25T13:22:22.116Z,35.37
2018-05-25T13:24:50.697Z,35.86
2018-05-25T13:27:19.073Z,36.49
2018-05-25T13:29:47.592Z,37.10
2018-05-25T13:32:16.151Z,38.14
2018-05-25T13:34:44.552Z,37.82
2018-05-25T13:37:13.014Z,38.77
2018-05-25T13:39:41.420Z,37.68
2018-05-25T13:42:09.801Z,35.93
2018-05-25T13:44:38.203Z,34.58
2018-05-25T13:47:06.582Z,32.28
2018-05-25T13:49:34.974Z,31.40
2018-05-25T13:52:03.343Z,31.11
2018-05-25T13:54:31.738Z,30.59
2018-05-25T13:57:00.119Z,30.73
2018-05-25T13:59:28.511Z,31.92
2018-05-25T14:01:56.879Z,31.16
2018-05-25T14:04:25.285Z,31.22
2018-05-25T14:06:53.976Z,32.46
2018-05-25T14:09:22.897Z,31.59
2018-05-25T14:11:51.676Z,30.69
2018-05-25T14:14:21.190Z,30.50
2018-05-25T14:16:49.699Z,30.31
2018-05-25T14:19:18.184Z,30.33
2018-05-25T14:21:46.546Z,31.61
2018-05-25T14:24:14.975Z,32.03
2018-05-25T14:26:43.787Z,31.61
2018-05-25T14:29:12.648Z,31.44
2018-05-25T14:31:41.134Z,32.25
2018-05-25T14:34:10.332Z,32.26
2018-05-25T14:36:38.752Z,32.10
2018-05-25T14:39:07.137Z,31.46
2018-05-25T14:41:35.524Z,30.45
2018-05-25T14:44:03.907Z,30.81
2018-05-25T14:46:32.311Z,28.84
2018-05-25T14:49:00.720Z,29.06
2018-05-25T14:51:29.161Z,28.94
2018-05-25T14:53:57.644Z,29.55
2018-05-25T14:56:26.039Z,30.43
2018-05-25T14:58:54.463Z,31.10
2018-05-25T15:01:22.828Z,31.48
2018-05-25T15:03:51.219Z,30.86
2018-05-25T15:06:19.623Z,30.61
2018-05-25T15:08:48.003Z,30.65
2018-05-25T15:11:16.396Z,29.86
2018-05-25T15:13:44.779Z,29.46
2018-05-25T15:16:13.192Z,29.20
2018-05-25T15:18:41.567Z,28.93
2018-05-25T15:21:09.976Z,28.70
2018-05-25T15:23:38.407Z,28.20
2018-05-25T15:26:06.751Z,28.05
2018-05-25T15:28:35.124Z,27.73
2018-05-25T15:31:03.663Z,27.56
2018-05-25T15:33:31.892Z,27.82
2018-05-25T15:36:00.775Z,27.45
2018-05-25T15:38:29.781Z,28.19
2018-05-25T15:40:58.279Z,28.25
2018-05-25T15:43:26.879Z,27.55
2018-05-25T15:45:56.044Z,28.24
2018-05-25T15:48:24.722Z,28.84
2018-05-25T15:50:53.128Z,27.83
2018-05-25T15:53:21.495Z,26.83
2018-05-25T15:55:49.891Z,26.58
2018-05-25T15:58:18.263Z,26.32
2018-05-25T16:00:46.663Z,26.62
2018-05-25T16:03:15.035Z,27.00
2018-05-25T16:05:43.428Z,26.93
2018-05-25T16:08:11.806Z,27.26
2018-05-25T16:10:40.199Z,27.26
2018-05-25T16:13:08.584Z,26.77
2018-05-25T16:15:36.970Z,26.57
2018-05-25T16:18:05.361Z,26.25
2018-05-25T16:20:34.692Z,26.43
2018-05-25T16:23:03.062Z,26.21
2018-05-25T16:25:31.460Z,26.29
2018-05-25T16:27:59.840Z,26.20
2018-05-25T16:30:28.223Z,26.29
2018-05-25T16:32:56.599Z,26.48
2018-05-25T16:35:24.986Z,26.47
2018-05-25T16:37:53.492Z,26.45
2018-05-25T16:40:23.555Z,26.08
2018-05-25T16:42:52.743Z,25.83
2018-05-25T16:45:21.334Z,26.28
2018-05-25T16:47:49.708Z,26.43
2018-05-25T16:50:18.140Z,26.28
2018-05-25T16:52:46.514Z,25.92
2018-05-25T16:55:14.970Z,25.42
2018-05-25T16:57:43.527Z,25.31
2018-05-25T17:00:12.367Z,25.35
2018-05-25T17:02:40.818Z,25.30
2018-05-25T17:05:09.286Z,25.23
2018-05-25T17:07:37.671Z,25.48
2018-05-25T17:10:06.076Z,25.31
2018-05-25T17:12:34.498Z,25.38
2018-05-25T17:15:02.819Z,25.37
2018-05-25T17:17:31.219Z,25.30
2018-05-25T17:19:59.611Z,25.24
2018-05-25T17:22:27.999Z,25.21
2018-05-25T17:24:56.799Z,25.28
2018-05-25T17:27:25.801Z,25.15
2018-05-25T17:29:54.635Z,25.19
2018-05-25T17:32:23.423Z,24.86
2018-05-25T17:34:52.052Z,24.66
2018-05-25T17:37:24.471Z,24.85
2018-05-25T17:39:56.028Z,24.83
2018-05-25T17:42:25.123Z,24.84
2018-05-25T17:44:53.810Z,24.77
2018-05-25T17:47:22.197Z,24.83
2018-05-25T17:49:50.574Z,24.64
2018-05-25T17:52:18.975Z,24.33
2018-05-25T17:54:47.362Z,24.33
2018-05-25T17:57:15.751Z,24.37
2018-05-25T17:59:44.131Z,24.14
2018-05-25T18:02:12.539Z,24.23
2018-05-25T18:04:40.916Z,24.23
2018-05-25T18:07:09.311Z,24.08
2018-05-25T18:09:37.695Z,23.82
2018-05-25T18:12:06.102Z,23.97
2018-05-25T18:14:34.474Z,23.92
2018-05-25T18:17:02.892Z,23.69
2018-05-25T18:19:31.280Z,23.58
2018-05-25T18:21:59.680Z,23.43
2018-05-25T18:24:28.051Z,23.26
2018-05-25T18:26:56.439Z,23.08
2018-05-25T18:29:24.820Z,22.99
2018-05-25T18:31:53.223Z,22.83
2018-05-25T18:34:21.619Z,22.68
2018-05-25T18:36:50.015Z,22.54
2018-05-25T18:39:18.408Z,22.27
2018-05-25T18:41:47.172Z,21.99
2018-05-25T18:44:15.567Z,21.91
2018-05-25T18:46:45.047Z,21.68
2018-05-25T18:49:14.307Z,21.44
2018-05-25T18:51:43.650Z,21.26
2018-05-25T18:54:23.756Z,20.97
2018-05-25T18:56:52.811Z,20.91
2018-05-25T18:59:21.209Z,20.78
2018-05-25T19:01:49.871Z,20.66
2018-05-25T19:04:19.236Z,20.36
2018-05-25T19:06:48.215Z,20.22
2018-05-25T19:09:17.187Z,19.84
2018-05-25T19:11:45.739Z,19.63
2018-05-25T19:14:14.126Z,19.49
2018-05-25T19:16:43.473Z,19.46
2018-05-25T19:19:12.452Z,19.54
2018-05-25T19:21:41.811Z,19.49
2018-05-25T19:24:10.304Z,19.55
2018-05-25T19:26:38.718Z,19.57
2018-05-25T19:29:07.851Z,19.48
2018-05-25T19:31:36.703Z,19.30
2018-05-25T19:34:05.213Z,19.07
2018-05-25T19:36:33.747Z,18.93
2018-05-25T19:39:02.135Z,18.77
2018-05-25T19:41:30.691Z,18.62
2018-05-25T19:43:59.683Z,18.54
2018-05-25T19:46:28.163Z,18.41
2018-05-25T19:48:56.547Z,18.38
2018-05-25T19:51:24.960Z,18.39
2018-05-25T19:53:53.352Z,18.48
2018-05-25T19:56:21.767Z,18.27
2018-05-25T19:58:50.152Z,18.07
2018-05-25T20:01:18.556Z,17.92
2018-05-25T20:03:46.947Z,17.89
2018-05-25T20:06:15.346Z,17.90
2018-05-25T20:08:43.727Z,17.88
2018-05-25T20:11:12.131Z,17.89
2018-05-25T20:13:40.514Z,17.80
2018-05-25T20:16:08.923Z,17.70
2018-05-25T20:18:37.319Z,17.77
2018-05-25T20:21:05.730Z,17.77
2018-05-25T20:23:34.123Z,17.76
2018-05-25T20:26:02.544Z,17.68
2018-05-25T20:28:30.935Z,17.42
2018-05-25T20:30:59.327Z,17.36
2018-05-25T20:33:27.711Z,17.31
2018-05-25T20:35:56.127Z,17.45
2018-05-25T20:38:24.508Z,17.48
2018-05-25T20:40:53.424Z,17.46
2018-05-25T20:43:22.226Z,17.48
2018-05-25T20:45:50.715Z,17.47
2018-05-25T20:48:19.090Z,17.63
2018-05-25T20:50:47.475Z,17.53
2018-05-25T20:53:15.932Z,17.37
2018-05-25T20:55:44.288Z,17.33
2018-05-25T20:58:12.698Z,17.46
2018-05-25T21:00:41.091Z,17.20
2018-05-25T21:03:09.491Z,17.06
2018-05-25T21:05:37.892Z,16.99
2018-05-25T21:08:06.312Z,17.01
2018-05-25T21:10:34.698Z,16.91
2018-05-25T21:13:03.103Z,16.84
2018-05-25T21:15:31.491Z,16.83
2018-05-25T21:17:59.900Z,16.77
2018-05-25T21:20:28.296Z,16.69
2018-05-25T21:22:56.707Z,16.75
2018-05-25T21:25:25.092Z,16.72
2018-05-25T21:27:53.491Z,16.83
2018-05-25T21:30:21.884Z,16.85
2018-05-25T21:32:50.295Z,16.80
2018-05-25T21:35:18.687Z,16.76
2018-05-25T21:37:47.087Z,16.71
2018-05-25T21:40:15.470Z,16.62
2018-05-25T21:42:44.141Z,16.53
2018-05-25T21:45:12.776Z,16.58
2018-05-25T21:47:41.670Z,16.65
2018-05-25T21:50:10.444Z,16.62
2018-05-25T21:52:39.207Z,16.54
2018-05-25T21:55:07.987Z,16.55
2018-05-25T21:57:36.684Z,16.61
2018-05-25T22:00:05.479Z,16.52
2018-05-25T22:02:34.156Z,16.43
2018-05-25T22:05:03.360Z,16.37
2018-05-25T22:07:33.335Z,16.23
2018-05-25T22:10:01.714Z,16.26
2018-05-25T22:12:30.135Z,16.24
2018-05-25T22:14:59.447Z,16.30
2018-05-25T22:17:28.639Z,16.39
2018-05-25T22:19:58.047Z,16.42
2018-05-25T22:22:26.623Z,16.33
2018-05-25T22:24:55.016Z,16.38
2018-05-25T22:27:23.588Z,16.33
2018-05-25T22:29:51.979Z,16.42
2018-05-25T22:32:21.391Z,16.41
2018-05-25T22:34:49.786Z,16.48
2018-05-25T22:37:18.883Z,16.36
2018-05-25T22:39:47.739Z,16.11
2018-05-25T22:42:27.835Z,16.01
2018-05-25T22:45:13.927Z,15.91
2018-05-25T22:48:00.144Z,15.76
2018-05-25T22:50:46.836Z,15.70
2018-05-25T22:53:26.536Z,15.63
2018-05-25T22:55:55.159Z,15.72
2018-05-25T22:58:24.219Z,15.79
2018-05-25T23:00:53.383Z,15.96
2018-05-25T23:03:22.722Z,16.08
2018-05-25T23:05:52.096Z,16.28
2018-05-25T23:08:20.497Z,16.39
2018-05-25T23:10:48.874Z,16.48
2018-05-25T23:13:17.279Z,16.40
2018-05-25T23:15:45.664Z,16.53
2018-05-25T23:18:14.064Z,16.50
2018-05-25T23:20:42.435Z,16.46
2018-05-25T23:23:10.838Z,16.44
2018-05-25T23:25:39.219Z,16.46
2018-05-25T23:28:07.637Z,16.39
2018-05-25T23:30:36.012Z,16.28
2018-05-25T23:33:04.416Z,16.25
2018-05-25T23:35:32.795Z,15.97
2018-05-25T23:38:01.187Z,15.87
2018-05-25T23:40:29.558Z,15.82
2018-05-25T23:42:57.964Z,15.75
2018-05-25T23:45:26.397Z,15.66
2018-05-25T23:47:54.789Z,15.68
2018-05-25T23:50:23.167Z,15.68
2018-05-25T23:52:51.571Z,15.75
2018-05-25T23:55:19.961Z,15.82
2018-05-25T23:57:48.351Z,15.94
